Las Vegas, Nevada
Traffic Map
Current Weather Conditions
Las Vegas, Nevada
Broken Clouds
Broken Clouds
38°
Feels Like: 38°
Wind Chill: 38° Ceiling: 25000
Heat Index: 38° Visibility: 7mi
Dew Point: 11° Wind: 18mph
Humidity: 19% Direction: 160° (SSE)
Pressure: 29.7in Gusts: 31mph
Raw Report DataKLAS 310044Z 16016G27KT 7SM SCT120 BKN250 38/11 A2970 RMK AO2 PK WND 18027/0027 WSHFT 0024 CB DSNT S-SW SHRA DSNT S T03780106
Traffic Incident Summary
Active as of:
Severity:
Category:
InformationThere was an issue retrieving the traffic information for this location. Please try a different location or try again shortly.
Advertisements
Track Severe Weather on mobile